sensor_id;sensor_type;location;lat;lon;timestamp;P1;durP1;ratioP1;P2;durP2;ratioP2
59054;SDS011;44845;51.444;7.460;2023-05-20T00:02:25;2.25;;;1.38;;
59054;SDS011;44845;51.444;7.460;2023-05-20T00:04:50;4.38;;;1.70;;
59054;SDS011;44845;51.444;7.460;2023-05-20T00:07:16;1.77;;;1.42;;
59054;SDS011;44845;51.444;7.460;2023-05-20T00:09:41;1.30;;;1.13;;
59054;SDS011;44845;51.444;7.460;2023-05-20T00:12:07;3.28;;;1.50;;
59054;SDS011;44845;51.444;7.460;2023-05-20T00:14:32;1.48;;;1.20;;
59054;SDS011;44845;51.444;7.460;2023-05-20T00:16:57;5.15;;;1.98;;
59054;SDS011;44845;51.444;7.460;2023-05-20T00:19:23;3.03;;;1.67;;
59054;SDS011;44845;51.444;7.460;2023-05-20T00:21:48;1.55;;;1.25;;
59054;SDS011;44845;51.444;7.460;2023-05-20T00:24:14;4.57;;;1.50;;
59054;SDS011;44845;51.444;7.460;2023-05-20T00:26:39;3.22;;;1.55;;
59054;SDS011;44845;51.444;7.460;2023-05-20T00:29:04;2.10;;;1.20;;
59054;SDS011;44845;51.444;7.460;2023-05-20T00:31:30;1.83;;;1.30;;
59054;SDS011;44845;51.444;7.460;2023-05-20T00:33:55;3.33;;;1.63;;
59054;SDS011;44845;51.444;7.460;2023-05-20T00:36:20;5.13;;;1.73;;
59054;SDS011;44845;51.444;7.460;2023-05-20T00:38:46;3.85;;;1.50;;
59054;SDS011;44845;51.444;7.460;2023-05-20T00:41:11;2.58;;;1.60;;
59054;SDS011;44845;51.444;7.460;2023-05-20T00:43:37;5.75;;;1.95;;
59054;SDS011;44845;51.444;7.460;2023-05-20T00:46:02;3.38;;;1.70;;
59054;SDS011;44845;51.444;7.460;2023-05-20T00:48:31;3.80;;;1.42;;
59054;SDS011;44845;51.444;7.460;2023-05-20T00:51:04;3.10;;;1.33;;
59054;SDS011;44845;51.444;7.460;2023-05-20T00:53:31;5.57;;;1.75;;
59054;SDS011;44845;51.444;7.460;2023-05-20T00:55:58;3.10;;;1.60;;
59054;SDS011;44845;51.444;7.460;2023-05-20T00:58:23;3.83;;;1.70;;
59054;SDS011;44845;51.444;7.460;2023-05-20T01:00:49;2.95;;;1.70;;
59054;SDS011;44845;51.444;7.460;2023-05-20T01:03:14;5.30;;;2.00;;
59054;SDS011;44845;51.444;7.460;2023-05-20T01:05:40;3.83;;;1.70;;
59054;SDS011;44845;51.444;7.460;2023-05-20T01:08:05;2.85;;;1.73;;
59054;SDS011;44845;51.444;7.460;2023-05-20T01:10:31;3.67;;;1.90;;
59054;SDS011;44845;51.444;7.460;2023-05-20T01:13:00;1.70;;;1.60;;
59054;SDS011;44845;51.444;7.460;2023-05-20T01:15:32;2.20;;;1.92;;
59054;SDS011;44845;51.444;7.460;2023-05-20T01:18:01;2.97;;;1.73;;
59054;SDS011;44845;51.444;7.460;2023-05-20T01:20:29;6.32;;;1.85;;
59054;SDS011;44845;51.444;7.460;2023-05-20T01:22:57;2.75;;;1.60;;
59054;SDS011;44845;51.444;7.460;2023-05-20T01:25:22;6.57;;;1.83;;
59054;SDS011;44845;51.444;7.460;2023-05-20T01:27:51;3.83;;;1.80;;
59054;SDS011;44845;51.444;7.460;2023-05-20T01:30:18;5.22;;;1.70;;
59054;SDS011;44845;51.444;7.460;2023-05-20T01:32:49;3.88;;;2.00;;
59054;SDS011;44845;51.444;7.460;2023-05-20T01:37:46;3.90;;;2.00;;
59054;SDS011;44845;51.444;7.460;2023-05-20T01:40:13;2.60;;;1.70;;
59054;SDS011;44845;51.444;7.460;2023-05-20T01:42:40;3.60;;;2.08;;
59054;SDS011;44845;51.444;7.460;2023-05-20T01:45:07;4.90;;;1.60;;
59054;SDS011;44845;51.444;7.460;2023-05-20T01:47:33;5.70;;;1.80;;
59054;SDS011;44845;51.444;7.460;2023-05-20T01:49:58;2.30;;;1.50;;
59054;SDS011;44845;51.444;7.460;2023-05-20T01:52:23;2.92;;;1.83;;
59054;SDS011;44845;51.444;7.460;2023-05-20T01:54:49;5.43;;;1.65;;
59054;SDS011;44845;51.444;7.460;2023-05-20T01:57:18;2.17;;;1.73;;
59054;SDS011;44845;51.444;7.460;2023-05-20T01:59:45;3.42;;;1.77;;
59054;SDS011;44845;51.444;7.460;2023-05-20T02:02:11;4.53;;;1.80;;
59054;SDS011;44845;51.444;7.460;2023-05-20T02:04:36;3.08;;;1.65;;
59054;SDS011;44845;51.444;7.460;2023-05-20T02:07:02;3.15;;;1.90;;
59054;SDS011;44845;51.444;7.460;2023-05-20T02:09:27;2.75;;;1.40;;
59054;SDS011;44845;51.444;7.460;2023-05-20T02:11:53;3.30;;;1.90;;
59054;SDS011;44845;51.444;7.460;2023-05-20T02:14:18;5.15;;;1.90;;
59054;SDS011;44845;51.444;7.460;2023-05-20T02:16:44;2.90;;;1.95;;
59054;SDS011;44845;51.444;7.460;2023-05-20T02:19:11;6.45;;;1.70;;
59054;SDS011;44845;51.444;7.460;2023-05-20T02:21:40;3.00;;;2.00;;
59054;SDS011;44845;51.444;7.460;2023-05-20T02:24:06;4.22;;;1.80;;
59054;SDS011;44845;51.444;7.460;2023-05-20T02:26:32;3.05;;;1.40;;
59054;SDS011;44845;51.444;7.460;2023-05-20T02:28:58;4.43;;;1.95;;
59054;SDS011;44845;51.444;7.460;2023-05-20T02:31:23;3.15;;;1.70;;
59054;SDS011;44845;51.444;7.460;2023-05-20T02:33:49;3.22;;;1.75;;
59054;SDS011;44845;51.444;7.460;2023-05-20T02:36:15;4.10;;;1.90;;
59054;SDS011;44845;51.444;7.460;2023-05-20T02:38:41;4.22;;;2.22;;
59054;SDS011;44845;51.444;7.460;2023-05-20T02:41:06;3.30;;;1.83;;
59054;SDS011;44845;51.444;7.460;2023-05-20T02:43:32;3.55;;;2.30;;
59054;SDS011;44845;51.444;7.460;2023-05-20T02:45:58;4.30;;;2.20;;
59054;SDS011;44845;51.444;7.460;2023-05-20T02:48:23;3.42;;;1.88;;
59054;SDS011;44845;51.444;7.460;2023-05-20T02:50:49;6.93;;;1.90;;
59054;SDS011;44845;51.444;7.460;2023-05-20T02:53:14;4.10;;;2.45;;
59054;SDS011;44845;51.444;7.460;2023-05-20T02:55:40;3.60;;;2.17;;
59054;SDS011;44845;51.444;7.460;2023-05-20T02:58:05;4.88;;;2.30;;
59054;SDS011;44845;51.444;7.460;2023-05-20T03:00:31;2.72;;;2.17;;
59054;SDS011;44845;51.444;7.460;2023-05-20T03:02:59;3.30;;;2.35;;
59054;SDS011;44845;51.444;7.460;2023-05-20T03:05:25;2.80;;;1.95;;
59054;SDS011;44845;51.444;7.460;2023-05-20T03:07:51;6.75;;;2.20;;
59054;SDS011;44845;51.444;7.460;2023-05-20T03:10:16;3.60;;;2.45;;
59054;SDS011;44845;51.444;7.460;2023-05-20T03:12:42;3.67;;;2.25;;
59054;SDS011;44845;51.444;7.460;2023-05-20T03:15:07;3.95;;;2.40;;
59054;SDS011;44845;51.444;7.460;2023-05-20T03:17:33;5.20;;;2.17;;
59054;SDS011;44845;51.444;7.460;2023-05-20T03:19:58;3.40;;;2.08;;
59054;SDS011;44845;51.444;7.460;2023-05-20T03:22:25;3.63;;;2.13;;
59054;SDS011;44845;51.444;7.460;2023-05-20T03:24:51;5.53;;;2.40;;
59054;SDS011;44845;51.444;7.460;2023-05-20T03:27:16;6.57;;;2.25;;
59054;SDS011;44845;51.444;7.460;2023-05-20T03:29:42;3.65;;;2.33;;
59054;SDS011;44845;51.444;7.460;2023-05-20T03:32:08;3.13;;;1.90;;
59054;SDS011;44845;51.444;7.460;2023-05-20T03:34:33;7.55;;;1.92;;
59054;SDS011;44845;51.444;7.460;2023-05-20T03:36:59;4.35;;;1.95;;
59054;SDS011;44845;51.444;7.460;2023-05-20T03:39:24;2.60;;;2.03;;
59054;SDS011;44845;51.444;7.460;2023-05-20T03:41:50;4.32;;;2.25;;
59054;SDS011;44845;51.444;7.460;2023-05-20T03:44:15;3.88;;;1.98;;
59054;SDS011;44845;51.444;7.460;2023-05-20T03:46:41;5.53;;;2.47;;
59054;SDS011;44845;51.444;7.460;2023-05-20T03:49:06;2.78;;;1.77;;
59054;SDS011;44845;51.444;7.460;2023-05-20T03:51:32;6.68;;;2.70;;
59054;SDS011;44845;51.444;7.460;2023-05-20T03:53:57;2.95;;;1.65;;
59054;SDS011;44845;51.444;7.460;2023-05-20T03:56:22;3.28;;;2.00;;
59054;SDS011;44845;51.444;7.460;2023-05-20T03:58:48;4.97;;;2.25;;
59054;SDS011;44845;51.444;7.460;2023-05-20T04:01:13;4.22;;;1.90;;
59054;SDS011;44845;51.444;7.460;2023-05-20T04:03:39;5.10;;;1.85;;
59054;SDS011;44845;51.444;7.460;2023-05-20T04:06:08;6.53;;;2.20;;
59054;SDS011;44845;51.444;7.460;2023-05-20T04:08:33;4.25;;;1.90;;
59054;SDS011;44845;51.444;7.460;2023-05-20T04:11:00;2.97;;;1.75;;
59054;SDS011;44845;51.444;7.460;2023-05-20T04:13:26;4.00;;;2.00;;
59054;SDS011;44845;51.444;7.460;2023-05-20T04:15:52;3.03;;;1.83;;
59054;SDS011;44845;51.444;7.460;2023-05-20T04:18:17;3.55;;;2.00;;
59054;SDS011;44845;51.444;7.460;2023-05-20T04:20:42;6.60;;;1.65;;
59054;SDS011;44845;51.444;7.460;2023-05-20T04:23:08;2.13;;;1.88;;
59054;SDS011;44845;51.444;7.460;2023-05-20T04:25:34;3.92;;;2.22;;
59054;SDS011;44845;51.444;7.460;2023-05-20T04:28:00;2.20;;;1.67;;
59054;SDS011;44845;51.444;7.460;2023-05-20T04:30:26;2.05;;;1.80;;
59054;SDS011;44845;51.444;7.460;2023-05-20T04:32:52;5.07;;;2.08;;
59054;SDS011;44845;51.444;7.460;2023-05-20T04:35:18;3.47;;;1.85;;
59054;SDS011;44845;51.444;7.460;2023-05-20T04:37:43;1.98;;;1.80;;
59054;SDS011;44845;51.444;7.460;2023-05-20T04:40:12;4.05;;;1.88;;
59054;SDS011;44845;51.444;7.460;2023-05-20T04:42:38;3.63;;;2.08;;
59054;SDS011;44845;51.444;7.460;2023-05-20T04:45:03;2.05;;;1.77;;
59054;SDS011;44845;51.444;7.460;2023-05-20T04:47:30;4.05;;;2.03;;
59054;SDS011;44845;51.444;7.460;2023-05-20T04:49:56;3.10;;;2.13;;
59054;SDS011;44845;51.444;7.460;2023-05-20T04:52:22;2.30;;;2.10;;
59054;SDS011;44845;51.444;7.460;2023-05-20T04:54:51;2.75;;;1.80;;
59054;SDS011;44845;51.444;7.460;2023-05-20T04:57:16;5.40;;;2.08;;
59054;SDS011;44845;51.444;7.460;2023-05-20T04:59:45;6.25;;;2.58;;
59054;SDS011;44845;51.444;7.460;2023-05-20T05:02:11;6.22;;;3.17;;
59054;SDS011;44845;51.444;7.460;2023-05-20T05:04:36;6.82;;;2.00;;
59054;SDS011;44845;51.444;7.460;2023-05-20T05:07:02;5.68;;;2.40;;
59054;SDS011;44845;51.444;7.460;2023-05-20T05:09:27;4.30;;;2.10;;
59054;SDS011;44845;51.444;7.460;2023-05-20T05:11:53;3.10;;;1.95;;
59054;SDS011;44845;51.444;7.460;2023-05-20T05:14:18;3.47;;;2.15;;
59054;SDS011;44845;51.444;7.460;2023-05-20T05:16:44;3.03;;;2.00;;
59054;SDS011;44845;51.444;7.460;2023-05-20T05:19:09;4.53;;;2.42;;
59054;SDS011;44845;51.444;7.460;2023-05-20T05:21:35;3.20;;;2.30;;
59054;SDS011;44845;51.444;7.460;2023-05-20T05:24:00;3.15;;;2.05;;
59054;SDS011;44845;51.444;7.460;2023-05-20T05:26:25;3.13;;;1.95;;
59054;SDS011;44845;51.444;7.460;2023-05-20T05:28:52;2.97;;;2.00;;
59054;SDS011;44845;51.444;7.460;2023-05-20T05:31:18;3.67;;;2.53;;
59054;SDS011;44845;51.444;7.460;2023-05-20T05:33:44;3.67;;;2.25;;
59054;SDS011;44845;51.444;7.460;2023-05-20T05:36:09;4.47;;;2.35;;
59054;SDS011;44845;51.444;7.460;2023-05-20T05:38:34;2.85;;;2.20;;
59054;SDS011;44845;51.444;7.460;2023-05-20T05:41:00;9.13;;;2.03;;
59054;SDS011;44845;51.444;7.460;2023-05-20T05:43:26;3.72;;;2.40;;
59054;SDS011;44845;51.444;7.460;2023-05-20T05:45:51;4.18;;;1.73;;
59054;SDS011;44845;51.444;7.460;2023-05-20T05:48:16;5.82;;;2.60;;
59054;SDS011;44845;51.444;7.460;2023-05-20T05:50:45;3.40;;;2.50;;
59054;SDS011;44845;51.444;7.460;2023-05-20T05:53:11;2.58;;;2.13;;
59054;SDS011;44845;51.444;7.460;2023-05-20T05:55:36;4.25;;;2.63;;
59054;SDS011;44845;51.444;7.460;2023-05-20T05:58:01;4.97;;;2.50;;
59054;SDS011;44845;51.444;7.460;2023-05-20T06:00:27;5.68;;;2.30;;
59054;SDS011;44845;51.444;7.460;2023-05-20T06:02:52;3.95;;;2.47;;
59054;SDS011;44845;51.444;7.460;2023-05-20T06:05:17;3.28;;;2.63;;
59054;SDS011;44845;51.444;7.460;2023-05-20T06:07:43;5.13;;;2.50;;
59054;SDS011;44845;51.444;7.460;2023-05-20T06:10:08;3.50;;;2.50;;
59054;SDS011;44845;51.444;7.460;2023-05-20T06:12:34;5.78;;;2.55;;
59054;SDS011;44845;51.444;7.460;2023-05-20T06:14:59;4.53;;;2.97;;
59054;SDS011;44845;51.444;7.460;2023-05-20T06:17:25;4.50;;;3.05;;
59054;SDS011;44845;51.444;7.460;2023-05-20T06:19:50;2.60;;;2.40;;
59054;SDS011;44845;51.444;7.460;2023-05-20T06:22:15;4.20;;;2.72;;
59054;SDS011;44845;51.444;7.460;2023-05-20T06:24:40;4.68;;;2.60;;
59054;SDS011;44845;51.444;7.460;2023-05-20T06:27:06;4.25;;;2.70;;
59054;SDS011;44845;51.444;7.460;2023-05-20T06:29:31;4.05;;;2.65;;
59054;SDS011;44845;51.444;7.460;2023-05-20T06:31:57;4.60;;;3.00;;
59054;SDS011;44845;51.444;7.460;2023-05-20T06:34:23;5.75;;;2.75;;
59054;SDS011;44845;51.444;7.460;2023-05-20T06:36:49;3.15;;;2.83;;
59054;SDS011;44845;51.444;7.460;2023-05-20T06:39:14;6.43;;;2.90;;
59054;SDS011;44845;51.444;7.460;2023-05-20T06:41:39;4.28;;;3.08;;
59054;SDS011;44845;51.444;7.460;2023-05-20T06:44:05;5.78;;;2.90;;
59054;SDS011;44845;51.444;7.460;2023-05-20T06:46:31;6.05;;;3.30;;
59054;SDS011;44845;51.444;7.460;2023-05-20T06:48:57;6.40;;;3.25;;
59054;SDS011;44845;51.444;7.460;2023-05-20T06:51:23;5.43;;;3.08;;
59054;SDS011;44845;51.444;7.460;2023-05-20T06:53:48;4.38;;;2.95;;
59054;SDS011;44845;51.444;7.460;2023-05-20T06:56:13;3.65;;;2.92;;
59054;SDS011;44845;51.444;7.460;2023-05-20T06:58:39;6.07;;;3.10;;
59054;SDS011;44845;51.444;7.460;2023-05-20T07:01:05;3.63;;;3.10;;
59054;SDS011;44845;51.444;7.460;2023-05-20T07:03:30;5.35;;;3.15;;
59054;SDS011;44845;51.444;7.460;2023-05-20T07:05:55;3.58;;;2.85;;
59054;SDS011;44845;51.444;7.460;2023-05-20T07:08:21;4.25;;;3.40;;
59054;SDS011;44845;51.444;7.460;2023-05-20T07:10:46;5.65;;;3.20;;
59054;SDS011;44845;51.444;7.460;2023-05-20T07:13:11;6.90;;;3.70;;
59054;SDS011;44845;51.444;7.460;2023-05-20T07:15:37;5.63;;;3.42;;
59054;SDS011;44845;51.444;7.460;2023-05-20T07:18:02;5.30;;;3.50;;
59054;SDS011;44845;51.444;7.460;2023-05-20T07:20:28;4.13;;;3.00;;
59054;SDS011;44845;51.444;7.460;2023-05-20T07:22:53;4.70;;;3.60;;
59054;SDS011;44845;51.444;7.460;2023-05-20T07:25:18;7.35;;;3.90;;
59054;SDS011;44845;51.444;7.460;2023-05-20T07:27:44;4.45;;;3.33;;
59054;SDS011;44845;51.444;7.460;2023-05-20T07:30:10;6.15;;;3.60;;
59054;SDS011;44845;51.444;7.460;2023-05-20T07:32:35;6.18;;;3.88;;
59054;SDS011;44845;51.444;7.460;2023-05-20T07:35:01;13.35;;;3.95;;
59054;SDS011;44845;51.444;7.460;2023-05-20T07:37:26;7.20;;;3.67;;
59054;SDS011;44845;51.444;7.460;2023-05-20T07:39:51;8.40;;;4.68;;
59054;SDS011;44845;51.444;7.460;2023-05-20T07:42:17;7.32;;;3.72;;
59054;SDS011;44845;51.444;7.460;2023-05-20T07:44:42;5.78;;;3.97;;
59054;SDS011;44845;51.444;7.460;2023-05-20T07:47:08;4.68;;;3.63;;
59054;SDS011;44845;51.444;7.460;2023-05-20T07:49:33;5.65;;;3.92;;
59054;SDS011;44845;51.444;7.460;2023-05-20T07:51:59;6.78;;;3.75;;
59054;SDS011;44845;51.444;7.460;2023-05-20T07:54:25;9.40;;;3.83;;
59054;SDS011;44845;51.444;7.460;2023-05-20T07:56:51;7.07;;;4.43;;
59054;SDS011;44845;51.444;7.460;2023-05-20T07:59:16;4.53;;;3.88;;
59054;SDS011;44845;51.444;7.460;2023-05-20T08:01:42;6.35;;;4.03;;
59054;SDS011;44845;51.444;7.460;2023-05-20T08:04:07;6.47;;;3.88;;
59054;SDS011;44845;51.444;7.460;2023-05-20T08:06:33;4.13;;;3.47;;
59054;SDS011;44845;51.444;7.460;2023-05-20T08:08:59;6.47;;;4.75;;
59054;SDS011;44845;51.444;7.460;2023-05-20T08:11:25;7.53;;;3.78;;
59054;SDS011;44845;51.444;7.460;2023-05-20T08:13:51;6.78;;;3.92;;
59054;SDS011;44845;51.444;7.460;2023-05-20T08:16:16;7.50;;;3.92;;
59054;SDS011;44845;51.444;7.460;2023-05-20T08:18:41;8.80;;;4.30;;
59054;SDS011;44845;51.444;7.460;2023-05-20T08:21:07;9.30;;;4.65;;
59054;SDS011;44845;51.444;7.460;2023-05-20T08:23:33;8.23;;;4.40;;
59054;SDS011;44845;51.444;7.460;2023-05-20T08:25:59;7.65;;;4.45;;
59054;SDS011;44845;51.444;7.460;2023-05-20T08:28:26;7.43;;;4.88;;
59054;SDS011;44845;51.444;7.460;2023-05-20T08:30:52;6.80;;;4.32;;
59054;SDS011;44845;51.444;7.460;2023-05-20T08:33:17;6.07;;;4.45;;
59054;SDS011;44845;51.444;7.460;2023-05-20T08:35:43;6.82;;;4.03;;
59054;SDS011;44845;51.444;7.460;2023-05-20T08:38:09;5.93;;;4.55;;
59054;SDS011;44845;51.444;7.460;2023-05-20T08:40:34;5.22;;;4.38;;
59054;SDS011;44845;51.444;7.460;2023-05-20T08:43:00;6.78;;;4.82;;
59054;SDS011;44845;51.444;7.460;2023-05-20T08:45:26;5.28;;;4.40;;
59054;SDS011;44845;51.444;7.460;2023-05-20T08:47:52;7.72;;;4.80;;
59054;SDS011;44845;51.444;7.460;2023-05-20T08:50:18;7.78;;;4.88;;
59054;SDS011;44845;51.444;7.460;2023-05-20T08:52:46;7.40;;;4.60;;
59054;SDS011;44845;51.444;7.460;2023-05-20T08:55:26;13.90;;;4.72;;
59054;SDS011;44845;51.444;7.460;2023-05-20T08:57:58;5.32;;;4.20;;
59054;SDS011;44845;51.444;7.460;2023-05-20T09:00:23;7.85;;;4.95;;
59054;SDS011;44845;51.444;7.460;2023-05-20T09:02:52;9.13;;;5.15;;
59054;SDS011;44845;51.444;7.460;2023-05-20T09:05:18;7.50;;;4.80;;
59054;SDS011;44845;51.444;7.460;2023-05-20T09:07:45;6.78;;;4.88;;
59054;SDS011;44845;51.444;7.460;2023-05-20T09:10:10;5.78;;;4.50;;
59054;SDS011;44845;51.444;7.460;2023-05-20T09:12:36;6.70;;;4.95;;
59054;SDS011;44845;51.444;7.460;2023-05-20T09:15:02;6.63;;;4.78;;
59054;SDS011;44845;51.444;7.460;2023-05-20T09:17:28;7.55;;;5.28;;
59054;SDS011;44845;51.444;7.460;2023-05-20T09:19:53;8.00;;;5.65;;
59054;SDS011;44845;51.444;7.460;2023-05-20T09:22:25;6.28;;;4.78;;
59054;SDS011;44845;51.444;7.460;2023-05-20T09:24:52;9.98;;;5.47;;
59054;SDS011;44845;51.444;7.460;2023-05-20T09:27:21;6.32;;;5.00;;
59054;SDS011;44845;51.444;7.460;2023-05-20T09:29:48;9.38;;;6.65;;
59054;SDS011;44845;51.444;7.460;2023-05-20T09:32:15;7.00;;;5.70;;
59054;SDS011;44845;51.444;7.460;2023-05-20T09:34:40;8.38;;;5.78;;
59054;SDS011;44845;51.444;7.460;2023-05-20T09:37:06;7.75;;;5.45;;
59054;SDS011;44845;51.444;7.460;2023-05-20T09:39:38;7.18;;;5.43;;
59054;SDS011;44845;51.444;7.460;2023-05-20T09:42:14;10.45;;;6.13;;
59054;SDS011;44845;51.444;7.460;2023-05-20T09:44:45;8.93;;;5.68;;
59054;SDS011;44845;51.444;7.460;2023-05-20T09:47:12;11.70;;;6.63;;
59054;SDS011;44845;51.444;7.460;2023-05-20T09:49:39;7.63;;;5.55;;
59054;SDS011;44845;51.444;7.460;2023-05-20T09:52:06;8.35;;;5.60;;
59054;SDS011;44845;51.444;7.460;2023-05-20T09:54:31;6.40;;;5.65;;
59054;SDS011;44845;51.444;7.460;2023-05-20T09:56:58;11.07;;;5.88;;
59054;SDS011;44845;51.444;7.460;2023-05-20T09:59:24;7.25;;;6.15;;
59054;SDS011;44845;51.444;7.460;2023-05-20T10:01:51;7.93;;;5.30;;
59054;SDS011;44845;51.444;7.460;2023-05-20T10:04:16;10.70;;;5.30;;
59054;SDS011;44845;51.444;7.460;2023-05-20T10:06:56;10.40;;;6.38;;
59054;SDS011;44845;51.444;7.460;2023-05-20T10:10:07;10.02;;;5.90;;
59054;SDS011;44845;51.444;7.460;2023-05-20T10:18:54;11.82;;;6.38;;
59054;SDS011;44845;51.444;7.460;2023-05-20T10:21:29;10.65;;;6.45;;
59054;SDS011;44845;51.444;7.460;2023-05-20T10:24:04;11.30;;;6.15;;
59054;SDS011;44845;51.444;7.460;2023-05-20T10:26:37;8.48;;;6.68;;
59054;SDS011;44845;51.444;7.460;2023-05-20T10:29:25;12.43;;;6.50;;
59054;SDS011;44845;51.444;7.460;2023-05-20T10:31:50;8.85;;;6.70;;
59054;SDS011;44845;51.444;7.460;2023-05-20T10:34:17;9.80;;;6.97;;
59054;SDS011;44845;51.444;7.460;2023-05-20T10:37:05;8.90;;;6.28;;
59054;SDS011;44845;51.444;7.460;2023-05-20T10:39:30;9.13;;;6.82;;
59054;SDS011;44845;51.444;7.460;2023-05-20T10:42:05;11.95;;;7.00;;
59054;SDS011;44845;51.444;7.460;2023-05-20T10:44:45;9.23;;;6.30;;
59054;SDS011;44845;51.444;7.460;2023-05-20T10:47:11;11.23;;;6.90;;
59054;SDS011;44845;51.444;7.460;2023-05-20T10:49:43;10.00;;;6.28;;
59054;SDS011;44845;51.444;7.460;2023-05-20T10:52:12;7.90;;;6.20;;
59054;SDS011;44845;51.444;7.460;2023-05-20T10:57:42;9.40;;;6.38;;
59054;SDS011;44845;51.444;7.460;2023-05-20T11:00:10;10.73;;;6.68;;
59054;SDS011;44845;51.444;7.460;2023-05-20T11:02:36;9.43;;;5.93;;
59054;SDS011;44845;51.444;7.460;2023-05-20T11:05:02;8.45;;;6.22;;
59054;SDS011;44845;51.444;7.460;2023-05-20T11:07:29;12.45;;;7.00;;
59054;SDS011;44845;51.444;7.460;2023-05-20T11:09:55;8.73;;;6.60;;
59054;SDS011;44845;51.444;7.460;2023-05-20T11:12:22;10.88;;;6.57;;
59054;SDS011;44845;51.444;7.460;2023-05-20T11:14:48;9.45;;;6.88;;
59054;SDS011;44845;51.444;7.460;2023-05-20T11:17:14;7.82;;;6.40;;
59054;SDS011;44845;51.444;7.460;2023-05-20T11:19:41;8.70;;;5.95;;
59054;SDS011;44845;51.444;7.460;2023-05-20T11:22:07;8.73;;;6.22;;
59054;SDS011;44845;51.444;7.460;2023-05-20T11:24:32;8.73;;;5.82;;
59054;SDS011;44845;51.444;7.460;2023-05-20T11:26:58;7.55;;;5.63;;
59054;SDS011;44845;51.444;7.460;2023-05-20T11:29:25;5.78;;;5.18;;
59054;SDS011;44845;51.444;7.460;2023-05-20T11:31:51;5.88;;;4.68;;
59054;SDS011;44845;51.444;7.460;2023-05-20T11:34:22;8.05;;;4.70;;
59054;SDS011;44845;51.444;7.460;2023-05-20T11:36:54;6.07;;;5.15;;
59054;SDS011;44845;51.444;7.460;2023-05-20T11:39:20;5.78;;;4.43;;
59054;SDS011;44845;51.444;7.460;2023-05-20T11:41:46;5.25;;;4.15;;
59054;SDS011;44845;51.444;7.460;2023-05-20T11:44:12;5.97;;;5.03;;
59054;SDS011;44845;51.444;7.460;2023-05-20T11:46:41;5.32;;;4.47;;
59054;SDS011;44845;51.444;7.460;2023-05-20T11:49:07;4.72;;;3.95;;
59054;SDS011;44845;51.444;7.460;2023-05-20T11:51:33;6.45;;;4.43;;
59054;SDS011;44845;51.444;7.460;2023-05-20T11:54:02;4.93;;;4.28;;
59054;SDS011;44845;51.444;7.460;2023-05-20T11:56:28;8.32;;;4.53;;
59054;SDS011;44845;51.444;7.460;2023-05-20T11:58:58;7.50;;;4.72;;
59054;SDS011;44845;51.444;7.460;2023-05-20T12:01:24;8.25;;;4.35;;
59054;SDS011;44845;51.444;7.460;2023-05-20T12:03:51;7.05;;;4.05;;
59054;SDS011;44845;51.444;7.460;2023-05-20T12:06:17;6.60;;;4.07;;
59054;SDS011;44845;51.444;7.460;2023-05-20T12:08:43;4.25;;;3.50;;
59054;SDS011;44845;51.444;7.460;2023-05-20T12:11:08;5.28;;;3.60;;
59054;SDS011;44845;51.444;7.460;2023-05-20T12:13:33;4.78;;;3.78;;
59054;SDS011;44845;51.444;7.460;2023-05-20T12:15:59;4.72;;;3.38;;
59054;SDS011;44845;51.444;7.460;2023-05-20T12:18:24;4.38;;;3.40;;
59054;SDS011;44845;51.444;7.460;2023-05-20T12:20:50;5.55;;;3.80;;
59054;SDS011;44845;51.444;7.460;2023-05-20T12:23:15;4.30;;;3.28;;
59054;SDS011;44845;51.444;7.460;2023-05-20T12:25:40;4.90;;;3.35;;
59054;SDS011;44845;51.444;7.460;2023-05-20T12:28:06;3.22;;;2.90;;
59054;SDS011;44845;51.444;7.460;2023-05-20T12:30:32;5.47;;;3.85;;
59054;SDS011;44845;51.444;7.460;2023-05-20T12:32:57;8.13;;;4.40;;
59054;SDS011;44845;51.444;7.460;2023-05-20T12:35:36;4.35;;;3.95;;
59054;SDS011;44845;51.444;7.460;2023-05-20T12:38:06;4.90;;;3.50;;
59054;SDS011;44845;51.444;7.460;2023-05-20T12:40:31;5.93;;;4.15;;
59054;SDS011;44845;51.444;7.460;2023-05-20T12:43:00;5.32;;;3.83;;
59054;SDS011;44845;51.444;7.460;2023-05-20T12:45:26;4.50;;;3.67;;
59054;SDS011;44845;51.444;7.460;2023-05-20T12:47:52;4.85;;;3.38;;
59054;SDS011;44845;51.444;7.460;2023-05-20T12:50:18;5.38;;;3.67;;
59054;SDS011;44845;51.444;7.460;2023-05-20T12:52:44;3.83;;;3.20;;
59054;SDS011;44845;51.444;7.460;2023-05-20T12:55:09;4.20;;;3.38;;
59054;SDS011;44845;51.444;7.460;2023-05-20T12:57:39;8.02;;;4.60;;
59054;SDS011;44845;51.444;7.460;2023-05-20T13:00:05;4.95;;;4.45;;
59054;SDS011;44845;51.444;7.460;2023-05-20T13:02:32;4.65;;;4.07;;
59054;SDS011;44845;51.444;7.460;2023-05-20T13:04:57;5.28;;;4.15;;
59054;SDS011;44845;51.444;7.460;2023-05-20T13:07:23;4.70;;;3.58;;
59054;SDS011;44845;51.444;7.460;2023-05-20T13:09:50;4.38;;;3.70;;
59054;SDS011;44845;51.444;7.460;2023-05-20T13:12:16;7.88;;;4.05;;
59054;SDS011;44845;51.444;7.460;2023-05-20T13:14:41;4.55;;;3.65;;
59054;SDS011;44845;51.444;7.460;2023-05-20T13:17:07;5.20;;;4.32;;
59054;SDS011;44845;51.444;7.460;2023-05-20T13:19:32;4.35;;;3.70;;
59054;SDS011;44845;51.444;7.460;2023-05-20T13:21:58;4.82;;;3.75;;
59054;SDS011;44845;51.444;7.460;2023-05-20T13:24:23;6.82;;;3.78;;
59054;SDS011;44845;51.444;7.460;2023-05-20T13:26:49;6.38;;;3.50;;
59054;SDS011;44845;51.444;7.460;2023-05-20T13:29:15;6.63;;;3.92;;
59054;SDS011;44845;51.444;7.460;2023-05-20T13:31:40;5.30;;;3.60;;
59054;SDS011;44845;51.444;7.460;2023-05-20T13:34:06;6.95;;;3.90;;
59054;SDS011;44845;51.444;7.460;2023-05-20T13:36:32;5.00;;;3.53;;
59054;SDS011;44845;51.444;7.460;2023-05-20T13:39:00;6.05;;;3.95;;
59054;SDS011;44845;51.444;7.460;2023-05-20T13:41:25;10.90;;;3.78;;
59054;SDS011;44845;51.444;7.460;2023-05-20T13:43:51;4.30;;;3.47;;
59054;SDS011;44845;51.444;7.460;2023-05-20T13:46:17;4.68;;;4.00;;
59054;SDS011;44845;51.444;7.460;2023-05-20T13:48:42;4.63;;;3.78;;
59054;SDS011;44845;51.444;7.460;2023-05-20T13:51:07;5.15;;;3.85;;
59054;SDS011;44845;51.444;7.460;2023-05-20T13:53:33;4.88;;;3.70;;
59054;SDS011;44845;51.444;7.460;2023-05-20T13:55:58;5.63;;;3.55;;
59054;SDS011;44845;51.444;7.460;2023-05-20T13:58:24;6.22;;;3.85;;
59054;SDS011;44845;51.444;7.460;2023-05-20T14:00:49;5.88;;;3.40;;
59054;SDS011;44845;51.444;7.460;2023-05-20T14:03:15;4.55;;;3.40;;
59054;SDS011;44845;51.444;7.460;2023-05-20T14:05:40;7.03;;;3.47;;
59054;SDS011;44845;51.444;7.460;2023-05-20T14:08:06;6.20;;;3.78;;
59054;SDS011;44845;51.444;7.460;2023-05-20T14:10:31;3.95;;;3.40;;
59054;SDS011;44845;51.444;7.460;2023-05-20T14:12:56;4.50;;;3.58;;
59054;SDS011;44845;51.444;7.460;2023-05-20T14:15:22;5.78;;;3.75;;
59054;SDS011;44845;51.444;7.460;2023-05-20T14:17:48;4.38;;;3.88;;
59054;SDS011;44845;51.444;7.460;2023-05-20T14:20:14;8.20;;;3.83;;
59054;SDS011;44845;51.444;7.460;2023-05-20T14:22:40;3.95;;;3.50;;
59054;SDS011;44845;51.444;7.460;2023-05-20T14:25:05;4.43;;;3.70;;
59054;SDS011;44845;51.444;7.460;2023-05-20T14:27:31;6.53;;;4.07;;
59054;SDS011;44845;51.444;7.460;2023-05-20T14:29:56;5.22;;;3.40;;
59054;SDS011;44845;51.444;7.460;2023-05-20T14:32:21;6.43;;;3.83;;
59054;SDS011;44845;51.444;7.460;2023-05-20T14:34:47;4.53;;;3.08;;
59054;SDS011;44845;51.444;7.460;2023-05-20T14:37:12;5.55;;;3.42;;
59054;SDS011;44845;51.444;7.460;2023-05-20T14:39:39;8.65;;;3.50;;
59054;SDS011;44845;51.444;7.460;2023-05-20T14:42:04;5.45;;;3.75;;
59054;SDS011;44845;51.444;7.460;2023-05-20T14:44:30;5.95;;;3.75;;
59054;SDS011;44845;51.444;7.460;2023-05-20T14:46:55;6.30;;;3.60;;
59054;SDS011;44845;51.444;7.460;2023-05-20T14:49:20;7.65;;;4.00;;
59054;SDS011;44845;51.444;7.460;2023-05-20T14:51:46;5.63;;;3.33;;
59054;SDS011;44845;51.444;7.460;2023-05-20T14:54:11;4.53;;;3.35;;
59054;SDS011;44845;51.444;7.460;2023-05-20T14:56:38;4.55;;;3.47;;